Time;durP1;ratioP1;P1;durP2;ratioP2;P2;SDS_P1;SDS_P2;PMS_P1;PMS_P2;Temp;Humidity;BMP_temperature;BMP_pressure;BME280_temperature;BME280_humidity;BME280_pressure;Samples;Min_cycle;Max_cycle;Signal;HPM_P1;HPM_P2
2022/02/01 00:01:40;;;;;;;22.60;10.40;;;0.90;99.90;;;;;;5013180;28;20076;-92
2022/02/01 00:04:15;;;;;;;18.65;9.73;;;1.00;99.90;;;;;;5013101;28;20065;-93
2022/02/01 00:07:05;;;;;;;18.27;10.65;;;1.00;99.90;;;;;;5012851;28;20053;-92
2022/02/01 00:14:55;;;;;;;26.00;11.65;;;0.90;99.90;;;;;;5013753;28;20091;-92
2022/02/01 00:17:54;;;;;;;16.15;10.30;;;1.00;99.90;;;;;;5013945;28;20050;-92
2022/02/01 00:20:37;;;;;;;20.58;10.63;;;1.00;99.90;;;;;;5012896;28;20160;-93
2022/02/01 00:36:51;;;;;;;17.10;10.10;;;1.00;99.90;;;;;;5013554;28;20060;-93
2022/02/01 00:39:18;;;;;;;23.75;11.05;;;1.00;99.90;;;;;;5012710;28;20082;-94
2022/02/01 00:41:53;;;;;;;20.02;9.82;;;1.00;99.90;;;;;;5012709;28;20060;-95
2022/02/01 00:44:20;;;;;;;19.52;10.82;;;1.10;99.90;;;;;;5029072;28;20081;-93
2022/02/01 00:46:47;;;;;;;18.45;10.15;;;1.00;99.90;;;;;;5012533;28;20137;-92
2022/02/01 00:49:15;;;;;;;18.10;10.00;;;1.00;99.90;;;;;;5012530;28;20048;-93
2022/02/01 00:51:41;;;;;;;27.20;11.18;;;1.00;99.90;;;;;;5013560;28;20451;-93
2022/02/01 00:54:08;;;;;;;17.02;10.40;;;1.10;99.90;;;;;;5016318;28;20073;-92
2022/02/01 00:56:35;;;;;;;14.43;8.80;;;1.00;99.90;;;;;;5016401;28;20060;-93
2022/02/01 00:59:02;;;;;;;29.63;9.50;;;1.00;99.90;;;;;;5033029;28;20052;-93
2022/02/01 01:01:29;;;;;;;19.45;10.00;;;1.00;99.90;;;;;;5032627;28;20056;-92
2022/02/01 01:03:56;;;;;;;18.73;7.90;;;0.90;99.90;;;;;;5016288;28;20453;-91
2022/02/01 01:06:22;;;;;;;18.30;8.82;;;0.90;99.90;;;;;;5032318;28;20053;-91
2022/02/01 01:08:49;;;;;;;17.58;9.35;;;0.90;99.90;;;;;;5032790;28;20129;-91
2022/02/01 01:11:16;;;;;;;9.48;6.53;;;1.00;99.90;;;;;;5032530;28;20054;-92
2022/02/01 01:17:04;;;;;;;7.90;6.45;;;1.00;99.90;;;;;;4984798;28;20165;-92
2022/02/01 01:44:33;;;;;;;18.65;9.43;;;1.10;99.90;;;;;;5016599;28;20054;-93
2022/02/01 01:55:29;;;;;;;13.43;9.18;;;1.10;99.90;;;;;;4984388;28;20057;-92
2022/02/01 01:57:56;;;;;;;15.45;8.98;;;1.10;99.90;;;;;;5031164;28;20486;-91
2022/02/01 02:01:11;;;;;;;15.57;9.90;;;1.10;99.90;;;;;;5031820;28;20115;-92
2022/02/01 02:03:10;;;;;;;17.08;9.43;;;1.10;99.90;;;;;;5005243;28;20050;-92
2022/02/01 02:05:37;;;;;;;17.60;10.48;;;1.00;99.90;;;;;;5031751;28;20046;-91
2022/02/01 02:08:04;;;;;;;16.83;9.65;;;1.10;99.90;;;;;;5014569;28;20053;-92
2022/02/01 02:10:36;;;;;;;14.63;9.57;;;1.10;99.90;;;;;;5031715;28;20138;-90
2022/02/01 02:16:10;;;;;;;14.95;9.48;;;1.10;99.90;;;;;;5016378;28;20060;-92
2022/02/01 02:18:37;;;;;;;16.23;10.23;;;1.10;99.90;;;;;;5031594;28;20084;-91
2022/02/01 02:21:05;;;;;;;13.65;9.13;;;1.10;99.90;;;;;;5013757;28;20068;-91
2022/02/01 02:23:33;;;;;;;16.20;9.73;;;1.00;99.90;;;;;;5031278;28;20094;-91
2022/02/01 02:26:04;;;;;;;12.52;8.70;;;1.00;99.90;;;;;;5031373;28;20156;-91
2022/02/01 02:28:31;;;;;;;18.00;10.70;;;1.10;99.90;;;;;;5030879;28;20052;-90
2022/02/01 02:31:00;;;;;;;17.95;10.07;;;1.10;99.90;;;;;;5014432;28;20054;-90
2022/02/01 02:33:28;;;;;;;16.38;10.77;;;1.10;99.90;;;;;;5014875;28;20456;-90
2022/02/01 02:36:13;;;;;;;14.05;10.43;;;1.10;99.90;;;;;;5014813;28;20049;-90
2022/02/01 02:38:47;;;;;;;17.77;9.90;;;1.10;99.90;;;;;;5014746;28;20056;-90
2022/02/01 02:46:33;;;;;;;18.38;10.82;;;1.10;99.90;;;;;;5018864;28;20054;-90
2022/02/01 02:49:03;;;;;;;17.55;10.50;;;1.10;99.90;;;;;;5014427;28;20495;-90
2022/02/01 02:51:29;;;;;;;16.17;10.90;;;1.10;99.90;;;;;;5015174;28;20056;-90
2022/02/01 02:53:56;;;;;;;17.17;10.93;;;1.10;99.90;;;;;;5013793;28;20045;-90
2022/02/01 02:56:23;;;;;;;19.77;11.07;;;1.20;99.90;;;;;;5015385;28;20568;-91
2022/02/01 02:58:51;;;;;;;22.08;11.48;;;1.10;99.90;;;;;;5014422;28;20045;-90
2022/02/01 03:01:19;;;;;;;20.15;11.15;;;1.00;99.90;;;;;;5014274;28;20060;-90
2022/02/01 03:03:46;;;;;;;17.65;10.43;;;1.10;99.90;;;;;;5013314;28;20133;-90
2022/02/01 03:06:13;;;;;;;17.85;11.10;;;1.20;99.90;;;;;;5014989;28;20046;-91
2022/02/01 03:08:40;;;;;;;20.15;10.63;;;1.20;99.90;;;;;;5013231;28;20129;-91
2022/02/01 03:11:12;;;;;;;23.73;11.90;;;1.10;99.90;;;;;;5013951;28;20410;-91
2022/02/01 03:13:48;;;;;;;17.67;11.80;;;1.10;99.90;;;;;;5012876;28;20042;-90
2022/02/01 03:21:34;;;;;;;17.80;11.05;;;1.20;99.90;;;;;;5013044;28;20054;-91
2022/02/01 03:24:01;;;;;;;23.38;11.55;;;1.20;99.90;;;;;;5012963;28;20141;-90
2022/02/01 03:26:28;;;;;;;19.38;11.60;;;1.20;99.90;;;;;;5013945;28;20060;-91
2022/02/01 03:28:55;;;;;;;25.33;12.07;;;1.20;99.90;;;;;;5013908;28;20052;-91
2022/02/01 03:31:22;;;;;;;17.83;11.50;;;1.20;99.90;;;;;;5013322;28;20153;-91
2022/02/01 03:33:49;;;;;;;22.05;11.90;;;1.20;99.90;;;;;;5013553;28;20383;-91
2022/02/01 03:36:18;;;;;;;19.98;12.38;;;1.10;99.90;;;;;;5013656;28;20077;-91
2022/02/01 03:38:47;;;;;;;23.90;12.15;;;1.20;99.90;;;;;;5013258;28;20137;-90
2022/02/01 03:41:14;;;;;;;25.40;13.25;;;1.20;99.90;;;;;;5013394;28;20138;-91
2022/02/01 03:43:40;;;;;;;28.30;13.85;;;1.20;99.90;;;;;;5013618;28;20052;-91
2022/02/01 03:46:08;;;;;;;29.67;14.23;;;1.20;99.90;;;;;;5013044;28;20046;-91
2022/02/01 03:48:35;;;;;;;30.55;13.18;;;1.10;99.90;;;;;;5012901;28;20553;-92
2022/02/01 03:51:01;;;;;;;24.33;12.82;;;1.10;99.90;;;;;;5013536;28;20133;-92
2022/02/01 03:53:28;;;;;;;20.52;13.15;;;1.10;99.90;;;;;;5013289;28;20050;-92
2022/02/01 03:55:55;;;;;;;24.52;13.35;;;1.10;99.90;;;;;;5013462;28;20052;-92
2022/02/01 03:58:22;;;;;;;23.65;12.93;;;1.10;99.90;;;;;;5013273;28;20057;-92
2022/02/01 04:00:49;;;;;;;23.38;13.88;;;1.10;99.90;;;;;;5013086;28;20132;-92
2022/02/01 04:03:16;;;;;;;27.27;13.65;;;1.10;99.90;;;;;;5013454;28;20112;-92
2022/02/01 04:05:43;;;;;;;27.58;13.02;;;1.20;99.90;;;;;;5012795;28;20050;-92
2022/02/01 04:08:12;;;;;;;27.67;14.43;;;1.20;99.90;;;;;;5013188;28;20532;-92
2022/02/01 04:10:39;;;;;;;28.35;13.57;;;1.20;99.90;;;;;;5013675;28;20548;-90
2022/02/01 04:13:06;;;;;;;22.75;13.65;;;1.20;99.90;;;;;;5013103;28;20057;-91
2022/02/01 04:15:33;;;;;;;22.73;13.45;;;1.20;99.90;;;;;;5013398;28;20544;-90
2022/02/01 04:18:00;;;;;;;28.10;14.95;;;1.20;99.90;;;;;;5013370;28;20050;-93
2022/02/01 04:20:28;;;;;;;27.33;14.63;;;1.20;99.90;;;;;;5013137;28;20148;-93
2022/02/01 04:22:55;;;;;;;23.23;13.88;;;1.20;99.90;;;;;;5012922;28;20042;-92
2022/02/01 04:25:21;;;;;;;27.38;14.60;;;1.20;99.90;;;;;;5013057;28;20084;-92
2022/02/01 04:27:48;;;;;;;26.40;14.98;;;1.20;99.90;;;;;;5012076;28;20073;-93
2022/02/01 04:30:18;;;;;;;33.97;15.13;;;1.20;99.90;;;;;;5013107;28;20487;-92
2022/02/01 04:32:50;;;;;;;25.50;14.23;;;1.20;99.90;;;;;;5013275;28;20104;-93
2022/02/01 04:35:23;;;;;;;24.38;13.40;;;1.20;99.90;;;;;;5013176;28;20045;-93
2022/02/01 04:37:54;;;;;;;28.70;15.05;;;1.20;99.90;;;;;;5013098;28;20054;-93
2022/02/01 04:40:23;;;;;;;25.98;14.38;;;1.20;99.90;;;;;;5011371;28;20066;-91
2022/02/01 04:42:51;;;;;;;30.50;14.02;;;1.20;99.90;;;;;;5013090;28;20129;-91
2022/02/01 04:45:21;;;;;;;32.40;15.45;;;1.20;99.90;;;;;;5011974;28;20085;-93
2022/02/01 04:47:52;;;;;;;27.33;13.18;;;1.20;99.90;;;;;;5012792;28;20115;-92
2022/02/01 04:50:29;;;;;;;24.17;14.18;;;1.10;99.90;;;;;;5012437;28;20566;-92
2022/02/01 04:52:56;;;;;;;33.20;14.10;;;1.20;99.90;;;;;;5011637;28;20562;-92
2022/02/01 04:55:30;;;;;;;27.55;14.15;;;1.10;99.90;;;;;;5012752;28;20570;-92
2022/02/01 04:57:56;;;;;;;;;;;1.20;99.90;;;;;;5013343;28;20443;-92
2022/02/01 05:00:29;;;;;;;26.60;13.63;;;1.20;99.90;;;;;;5028414;28;20016;-92
2022/02/01 05:02:57;;;;;;;26.02;15.23;;;1.30;99.90;;;;;;5011585;28;20042;-91
2022/02/01 05:05:28;;;;;;;27.98;15.07;;;1.20;99.90;;;;;;5011706;28;20054;-92
2022/02/01 05:07:59;;;;;;;30.13;15.48;;;1.30;99.90;;;;;;5012262;28;20046;-92
2022/02/01 05:10:28;;;;;;;25.45;14.90;;;1.30;99.90;;;;;;5011307;28;20076;-93
2022/02/01 05:13:03;;;;;;;29.20;15.07;;;1.30;99.90;;;;;;5013120;28;20097;-92
2022/02/01 05:15:29;;;;;;;21.75;13.02;;;1.30;99.90;;;;;;5012315;28;20076;-92
2022/02/01 05:17:57;;;;;;;30.70;15.18;;;1.30;99.90;;;;;;5012205;28;20056;-93
2022/02/01 05:20:42;;;;;;;21.83;13.65;;;1.30;99.90;;;;;;5011751;28;20074;-92
2022/02/01 05:23:09;;;;;;;30.38;14.27;;;1.30;99.90;;;;;;5011524;28;20107;-93
2022/02/01 05:25:36;;;;;;;24.98;12.38;;;1.20;99.90;;;;;;5012680;28;20046;-93
2022/02/01 05:28:03;;;;;;;23.00;12.50;;;1.20;99.90;;;;;;5011987;28;20112;-93
2022/02/01 05:30:30;;;;;;;25.40;12.48;;;1.30;99.90;;;;;;5012560;28;20046;-92
2022/02/01 05:32:57;;;;;;;32.70;14.05;;;1.30;99.90;;;;;;5012571;28;20057;-93
2022/02/01 05:35:24;;;;;;;25.80;13.75;;;1.20;99.90;;;;;;5012000;28;20073;-92
2022/02/01 05:37:51;;;;;;;23.73;12.68;;;1.20;99.90;;;;;;5013118;28;20088;-91
2022/02/01 05:40:19;;;;;;;30.35;13.05;;;1.20;99.90;;;;;;5014303;28;20081;-93
2022/02/01 05:42:58;;;;;;;27.63;11.38;;;1.20;99.90;;;;;;5015437;28;20550;-91
2022/02/01 05:45:26;;;;;;;21.13;11.57;;;1.20;99.90;;;;;;5015009;28;20046;-93
2022/02/01 05:47:54;;;;;;;23.55;10.43;;;1.20;99.90;;;;;;5015969;28;20079;-93
2022/02/01 05:50:21;;;;;;;19.95;10.07;;;1.20;99.90;;;;;;5014572;28;20528;-93
2022/02/01 05:52:48;;;;;;;19.20;9.95;;;1.20;99.90;;;;;;5015128;28;20081;-94
2022/02/01 05:55:15;;;;;;;21.23;10.15;;;1.10;99.90;;;;;;5031281;28;20104;-93
2022/02/01 05:57:43;;;;;;;24.35;14.00;;;1.10;99.90;;;;;;5014467;28;20064;-93
2022/02/01 06:00:11;;;;;;;24.02;12.82;;;1.00;99.90;;;;;;5017257;28;20050;-94
2022/02/01 06:02:40;;;;;;;19.85;11.30;;;1.00;99.90;;;;;;5014417;28;20061;-94
2022/02/01 06:05:07;;;;;;;21.13;9.88;;;1.00;99.90;;;;;;5014721;28;20046;-94
2022/02/01 06:07:34;;;;;;;21.73;11.68;;;1.00;99.90;;;;;;5030609;28;20072;-94
2022/02/01 06:10:01;;;;;;;21.42;10.60;;;1.00;99.90;;;;;;5014757;28;20517;-94
2022/02/01 06:12:38;;;;;;;21.15;9.90;;;1.00;99.90;;;;;;5015256;28;20057;-94
2022/02/01 06:15:06;;;;;;;20.67;10.80;;;1.00;99.90;;;;;;5030886;28;20532;-94
2022/02/01 06:17:32;;;;;;;25.65;11.15;;;1.00;99.90;;;;;;5015310;28;20514;-94
2022/02/01 06:19:59;;;;;;;19.70;9.70;;;0.90;99.90;;;;;;5015609;28;20061;-95
2022/02/01 06:22:26;;;;;;;16.77;8.00;;;1.00;99.90;;;;;;5030242;28;20054;-94
2022/02/01 06:24:52;;;;;;;19.77;10.00;;;0.90;99.90;;;;;;5030026;28;20058;-93
2022/02/01 06:27:19;;;;;;;16.13;8.68;;;1.00;99.90;;;;;;5014490;28;20045;-94
2022/02/01 06:29:46;;;;;;;18.52;9.70;;;0.90;99.90;;;;;;5030425;28;20141;-94
2022/02/01 06:32:13;;;;;;;19.95;7.22;;;1.00;99.90;;;;;;5030575;28;20076;-94
2022/02/01 06:34:40;;;;;;;16.73;7.40;;;1.00;99.90;;;;;;5030909;28;20042;-94
2022/02/01 06:37:07;;;;;;;51.78;32.33;;;1.00;99.90;;;;;;5029858;28;20054;-95
2022/02/01 06:39:33;;;;;;;30.88;12.48;;;1.00;99.90;;;;;;5014101;28;20046;-94
2022/02/01 06:42:02;;;;;;;21.60;8.75;;;1.00;99.90;;;;;;5019931;28;20049;-93
2022/02/01 06:44:28;;;;;;;13.38;4.18;;;1.00;99.90;;;;;;5031020;28;20052;-93
2022/02/01 06:46:55;;;;;;;22.15;5.22;;;1.00;99.90;;;;;;5030902;28;20201;-94
2022/02/01 06:49:23;;;;;;;21.70;5.38;;;1.00;99.90;;;;;;5030539;28;20388;-93
2022/02/01 06:51:49;;;;;;;15.32;3.67;;;1.00;99.90;;;;;;5031242;28;20050;-93
2022/02/01 06:54:16;;;;;;;29.00;6.50;;;1.10;99.90;;;;;;5030601;28;20140;-90
2022/02/01 06:56:43;;;;;;;40.38;14.98;;;1.00;99.90;;;;;;5031001;28;20081;-94
2022/02/01 06:59:10;;;;;;;25.10;5.47;;;1.00;99.90;;;;;;5014651;28;20076;-93
2022/02/01 07:01:37;;;;;;;33.67;10.23;;;1.10;99.90;;;;;;5031040;28;20076;-93
2022/02/01 07:04:04;;;;;;;27.55;9.30;;;1.10;99.90;;;;;;5013297;28;20054;-93
2022/02/01 07:06:33;;;;;;;16.20;3.95;;;1.10;99.90;;;;;;5030156;28;20137;-93
2022/02/01 07:09:02;;;;;;;21.75;6.38;;;1.10;99.90;;;;;;5030439;28;20050;-93
2022/02/01 07:11:29;;;;;;;23.23;4.30;;;1.10;99.90;;;;;;5030699;28;20053;-93
2022/02/01 07:13:56;;;;;;;19.48;3.65;;;1.10;99.90;;;;;;5030567;28;20418;-94
2022/02/01 07:16:23;;;;;;;24.38;5.80;;;1.10;99.90;;;;;;5030404;28;20406;-92
2022/02/01 07:18:54;;;;;;;22.83;4.95;;;1.10;99.90;;;;;;5030070;28;20073;-93
2022/02/01 07:21:22;;;;;;;18.05;3.00;;;1.10;99.90;;;;;;5030380;28;20062;-92
2022/02/01 07:23:50;;;;;;;18.05;2.78;;;1.10;99.90;;;;;;5030397;28;20116;-93
2022/02/01 07:26:20;;;;;;;19.92;2.90;;;1.10;99.90;;;;;;5029762;28;20118;-94
2022/02/01 07:28:47;;;;;;;19.20;3.63;;;1.20;99.90;;;;;;5030059;28;20141;-93
2022/02/01 07:31:14;;;;;;;23.88;3.30;;;1.20;99.90;;;;;;5030159;28;20054;-92
2022/02/01 07:33:40;;;;;;;18.27;4.13;;;1.10;99.90;;;;;;5030507;28;20060;-93
2022/02/01 07:36:07;;;;;;;30.40;5.75;;;1.20;99.90;;;;;;5030184;28;20587;-93
2022/02/01 07:38:35;;;;;;;31.10;7.25;;;1.20;99.90;;;;;;5029768;28;20438;-93
2022/02/01 07:41:02;;;;;;;22.52;7.97;;;1.30;99.90;;;;;;5029851;28;20053;-93
2022/02/01 07:43:32;;;;;;;22.60;6.80;;;1.30;99.90;;;;;;5013302;28;20128;-92
2022/02/01 07:46:05;;;;;;;25.20;6.95;;;1.30;99.90;;;;;;5030035;28;20383;-93
2022/02/01 07:48:32;;;;;;;24.05;6.70;;;1.30;99.90;;;;;;5029541;28;20057;-93
2022/02/01 07:50:59;;;;;;;33.13;7.45;;;1.40;99.90;;;;;;5029238;28;20054;-93
2022/02/01 07:53:26;;;;;;;18.75;6.70;;;1.40;99.90;;;;;;5029915;28;20060;-93
2022/02/01 07:55:53;;;;;;;27.08;6.90;;;1.40;99.90;;;;;;5029217;28;20065;-93
2022/02/01 07:58:19;;;;;;;21.13;5.82;;;1.40;99.90;;;;;;5029835;28;20388;-93
2022/02/01 08:00:46;;;;;;;45.13;13.40;;;1.40;99.90;;;;;;5029423;28;20042;-94
2022/02/01 08:03:13;;;;;;;38.67;11.57;;;1.40;99.90;;;;;;5013243;28;20445;-93
2022/02/01 08:05:40;;;;;;;39.45;12.05;;;1.40;99.90;;;;;;5013516;28;20064;-93
2022/02/01 08:08:07;;;;;;;39.85;13.40;;;1.50;99.90;;;;;;5012711;28;20050;-92
2022/02/01 08:10:50;;;;;;;42.28;17.35;;;1.50;99.90;;;;;;5013481;28;20050;-93
2022/02/01 08:14:05;;;;;;;22.50;6.65;;;1.50;99.90;;;;;;5013332;28;20056;-93
2022/02/01 08:19:08;;;;;;;22.50;5.90;;;1.50;99.90;;;;;;5013679;28;20406;-93
2022/02/01 08:21:51;;;;;;;17.42;4.20;;;1.50;99.90;;;;;;5027979;28;20137;-93
2022/02/01 08:24:19;;;;;;;16.58;3.05;;;1.60;99.90;;;;;;5028601;28;20132;-93
2022/02/01 08:26:46;;;;;;;17.85;3.15;;;1.60;99.90;;;;;;5029424;28;20413;-93
2022/02/01 08:29:14;;;;;;;17.08;4.70;;;1.60;99.90;;;;;;5029263;28;20072;-93
2022/02/01 08:31:45;;;;;;;27.08;6.82;;;1.60;99.90;;;;;;5029039;28;20046;-92
2022/02/01 08:34:12;;;;;;;15.27;4.18;;;1.70;99.90;;;;;;5029420;28;20073;-93
2022/02/01 08:36:38;;;;;;;26.15;10.20;;;1.70;99.90;;;;;;5028672;28;20053;-93
2022/02/01 08:39:05;;;;;;;23.35;7.60;;;1.60;99.90;;;;;;5012889;28;20062;-93
2022/02/01 08:41:32;;;;;;;15.63;4.68;;;1.70;99.90;;;;;;5029609;28;20054;-93
2022/02/01 08:43:59;;;;;;;17.42;4.20;;;1.70;99.90;;;;;;5029212;28;20057;-92
2022/02/01 08:46:26;;;;;;;19.65;2.80;;;1.70;99.90;;;;;;5029188;28;20501;-95
2022/02/01 08:48:53;;;;;;;12.77;2.78;;;1.70;99.90;;;;;;5027794;28;20054;-92
2022/02/01 08:51:23;;;;;;;19.20;2.63;;;1.80;99.90;;;;;;5029114;28;20050;-92
2022/02/01 08:53:58;;;;;;;16.23;4.13;;;1.80;99.90;;;;;;5028889;28;20084;-92
2022/02/01 08:59:28;;;;;;;18.48;3.15;;;2.00;99.90;;;;;;5013914;28;20058;-93
2022/02/01 09:01:55;;;;;;;13.20;3.08;;;2.00;99.90;;;;;;5028218;28;20052;-93
2022/02/01 09:04:23;;;;;;;8.73;2.35;;;2.10;99.90;;;;;;5029036;28;20045;-92
2022/02/01 09:06:52;;;;;;;20.23;3.10;;;2.10;99.90;;;;;;5028951;28;20508;-93
2022/02/01 09:09:20;;;;;;;13.65;3.72;;;2.20;99.90;;;;;;5028477;28;20049;-92
2022/02/01 09:11:48;;;;;;;23.80;3.53;;;2.20;99.90;;;;;;5032962;28;20487;-93
2022/02/01 09:14:15;;;;;;;15.32;2.65;;;2.40;99.90;;;;;;5032781;28;20057;-92
2022/02/01 09:16:41;;;;;;;16.98;3.45;;;2.50;99.90;;;;;;5032801;28;20050;-91
2022/02/01 09:19:11;;;;;;;14.50;3.03;;;2.50;99.90;;;;;;5033007;28;20126;-92
2022/02/01 09:21:38;;;;;;;16.42;2.80;;;2.60;99.90;;;;;;5031658;28;20054;-92
2022/02/01 09:24:05;;;;;;;13.07;2.85;;;2.70;99.90;;;;;;5031977;28;20050;-92
2022/02/01 09:26:32;;;;;;;10.40;2.40;;;2.70;99.90;;;;;;5032046;28;20046;-92
2022/02/01 09:29:17;;;;;;;8.52;2.38;;;2.80;99.90;;;;;;5029767;28;20050;-93
2022/02/01 09:31:44;;;;;;;12.80;2.33;;;2.80;99.90;;;;;;5032725;28;20054;-92
2022/02/01 09:34:11;;;;;;;16.75;5.00;;;2.90;99.90;;;;;;5031486;28;20549;-92
2022/02/01 09:36:38;;;;;;;13.70;2.67;;;3.00;99.90;;;;;;5031836;28;20406;-92
2022/02/01 09:39:05;;;;;;;11.10;2.20;;;3.00;99.90;;;;;;5015249;28;20551;-92
2022/02/01 09:41:33;;;;;;;7.47;2.22;;;3.10;99.90;;;;;;5030796;28;20312;-92
2022/02/01 09:44:00;;;;;;;16.15;2.40;;;3.10;99.90;;;;;;5031282;28;20469;-90
2022/02/01 09:46:27;;;;;;;9.70;1.75;;;3.20;99.90;;;;;;5030692;28;20213;-91
2022/02/01 09:48:54;;;;;;;12.38;2.17;;;3.20;99.90;;;;;;5031174;28;20050;-91
2022/02/01 09:51:20;;;;;;;9.00;1.73;;;3.30;99.90;;;;;;5030906;28;20421;-92
2022/02/01 09:54:07;;;;;;;10.52;2.40;;;3.20;99.90;;;;;;5027403;28;20046;-90
2022/02/01 09:56:34;;;;;;;13.27;2.10;;;3.40;99.90;;;;;;5030468;28;20069;-91
2022/02/01 09:59:03;;;;;;;16.00;2.63;;;3.40;99.90;;;;;;5030010;28;20129;-91
2022/02/01 10:01:31;;;;;;;10.88;2.42;;;3.60;99.90;;;;;;5030189;28;20414;-90
2022/02/01 10:04:08;;;;;;;12.48;1.88;;;3.70;99.90;;;;;;5031482;28;20050;-92
2022/02/01 10:06:41;;;;;;;17.70;2.85;;;3.60;99.90;;;;;;5030819;28;20141;-91
2022/02/01 10:09:28;;;;;;;13.63;2.47;;;3.60;99.90;;;;;;5028074;28;20053;-93
2022/02/01 10:11:55;;;;;;;9.70;2.90;;;3.50;99.90;;;;;;5031244;28;20132;-93
2022/02/01 10:14:28;;;;;;;12.90;2.15;;;3.60;99.90;;;;;;5030865;28;20054;-90
2022/02/01 10:16:58;;;;;;;10.70;2.22;;;3.70;99.90;;;;;;5031067;28;20056;-90
2022/02/01 10:19:25;;;;;;;15.38;2.13;;;3.70;99.90;;;;;;5031151;28;20054;-92
2022/02/01 10:21:57;;;;;;;13.60;2.90;;;3.70;99.90;;;;;;5031448;28;20498;-91
2022/02/01 10:24:41;;;;;;;12.75;2.55;;;3.80;99.90;;;;;;5030849;28;20052;-92
2022/02/01 10:27:19;;;;;;;16.42;2.20;;;3.80;99.90;;;;;;5031078;28;20525;-91
2022/02/01 10:35:23;;;;;;;11.18;3.13;;;3.70;99.90;;;;;;5014615;28;20046;-89
2022/02/01 10:37:58;;;;;;;6.68;1.65;;;3.70;99.90;;;;;;5031273;28;20132;-89
2022/02/01 10:40:40;;;;;;;9.45;2.65;;;3.90;99.90;;;;;;5029923;28;20098;-89
2022/02/01 10:43:28;;;;;;;6.57;1.90;;;3.90;99.90;;;;;;5028617;28;20133;-89
2022/02/01 10:46:07;;;;;;;9.60;2.03;;;3.90;99.90;;;;;;5030596;28;20100;-89
2022/02/01 10:48:34;;;;;;;7.32;2.10;;;3.90;99.90;;;;;;5030002;28;20127;-90
2022/02/01 10:51:05;;;;;;;9.00;3.13;;;4.00;99.90;;;;;;5030592;28;20072;-90
2022/02/01 10:53:32;;;;;;;8.23;1.90;;;4.10;99.90;;;;;;5029398;28;20046;-90
2022/02/01 10:56:01;;;;;;;10.18;1.67;;;4.10;99.90;;;;;;5030598;28;20056;-90
2022/02/01 10:58:28;;;;;;;7.25;2.13;;;4.00;99.90;;;;;;5028819;28;20081;-88
2022/02/01 11:00:56;;;;;;;8.48;2.45;;;4.00;99.90;;;;;;5029893;28;20517;-89
2022/02/01 11:03:24;;;;;;;16.08;2.80;;;4.10;99.90;;;;;;5030045;28;20077;-88
2022/02/01 11:05:53;;;;;;;8.32;2.47;;;4.10;99.90;;;;;;5029495;28;20054;-88
2022/02/01 11:08:25;;;;;;;5.78;2.30;;;4.00;99.90;;;;;;5029397;28;20081;-89
2022/02/01 11:10:57;;;;;;;7.97;2.20;;;3.90;99.90;;;;;;5029044;28;20054;-89
2022/02/01 11:13:40;;;;;;;5.47;1.75;;;3.90;99.90;;;;;;5028626;28;20052;-91
2022/02/01 11:16:17;;;;;;;5.70;1.70;;;3.70;99.90;;;;;;5034555;28;20101;-90
2022/02/01 11:19:05;;;;;;;9.27;2.42;;;3.60;99.90;;;;;;5029360;28;20148;-92
2022/02/01 11:21:47;;;;;;;7.75;2.05;;;3.50;99.90;;;;;;5028698;28;20556;-88
2022/02/01 11:24:33;;;;;;;4.13;1.63;;;3.50;99.90;;;;;;5029188;28;20112;-88
2022/02/01 11:27:17;;;;;;;5.57;2.10;;;3.50;99.90;;;;;;5029369;28;20104;-91
2022/02/01 11:30:02;;;;;;;5.63;2.05;;;3.50;99.90;;;;;;5028035;28;20077;-90
2022/02/01 11:32:40;;;;;;;8.02;1.70;;;3.50;99.90;;;;;;5029830;28;20054;-91
2022/02/01 11:35:13;;;;;;;4.07;2.13;;;3.60;99.90;;;;;;5028338;28;20053;-88
2022/02/01 11:38:07;;;;;;;6.63;2.42;;;3.70;99.90;;;;;;5036268;28;20046;-90
2022/02/01 11:40:41;;;;;;;5.15;1.85;;;3.70;99.90;;;;;;5035224;28;20088;-91
2022/02/01 11:43:28;;;;;;;;;;;3.70;99.90;;;;;;5027066;28;20081;-92
2022/02/01 11:46:02;;;;;;;3.85;1.60;;;3.80;99.90;;;;;;5013928;28;20378;-91
2022/02/01 11:48:32;;;;;;;2.85;1.60;;;3.70;99.90;;;;;;5028254;28;20495;-90
2022/02/01 11:51:02;;;;;;;9.00;1.85;;;3.70;99.90;;;;;;5028575;28;20134;-92
2022/02/01 11:53:35;;;;;;;4.70;1.63;;;3.70;99.90;;;;;;5029450;28;20052;-92
2022/02/01 11:56:04;;;;;;;3.33;1.55;;;3.70;99.90;;;;;;5029251;28;20045;-90
2022/02/01 11:58:45;;;;;;;2.75;1.33;;;3.50;99.90;;;;;;5029424;28;20081;-91
2022/02/01 12:01:32;;;;;;;6.55;1.52;;;3.60;99.90;;;;;;5028966;28;20335;-90
2022/02/01 12:04:05;;;;;;;5.05;1.67;;;3.50;99.90;;;;;;5028354;28;20108;-92
2022/02/01 12:07:05;;;;;;;3.63;1.73;;;3.60;99.90;;;;;;5028287;28;20061;-89
2022/02/01 12:09:32;;;;;;;5.65;1.33;;;3.50;99.90;;;;;;5029176;28;20056;-91
2022/02/01 12:12:01;;;;;;;4.68;1.73;;;3.60;99.90;;;;;;5028550;28;20128;-94
2022/02/01 12:14:29;;;;;;;4.03;1.40;;;3.60;99.90;;;;;;5028681;28;20057;-92
2022/02/01 12:16:58;;;;;;;4.60;1.33;;;3.50;99.90;;;;;;5029292;28;20185;-94
2022/02/01 12:19:36;;;;;;;2.45;1.10;;;3.60;99.90;;;;;;5029193;28;20264;-93
2022/02/01 12:22:36;;;;;;;16.80;1.52;;;3.60;99.90;;;;;;5027064;28;20046;-92
2022/02/01 12:25:05;;;;;;;3.15;1.45;;;3.60;99.90;;;;;;5029472;28;20054;-91
2022/02/01 12:27:34;;;;;;;2.28;0.90;;;3.60;99.90;;;;;;5028818;28;20073;-91
2022/02/01 12:30:02;;;;;;;3.42;1.30;;;3.70;99.90;;;;;;5028946;28;20141;-90
2022/02/01 12:32:29;;;;;;;1.80;1.00;;;3.70;99.90;;;;;;5028724;28;20042;-89
2022/02/01 12:34:56;;;;;;;3.45;0.68;;;3.70;99.90;;;;;;5029737;28;20503;-90
2022/02/01 12:37:24;;;;;;;4.75;1.02;;;3.80;99.90;;;;;;5027727;28;20554;-90
2022/02/01 12:39:59;;;;;;;4.18;0.95;;;3.80;99.90;;;;;;5029106;28;20057;-91
2022/02/01 12:42:44;;;;;;;1.85;0.63;;;3.80;99.90;;;;;;5029632;28;20046;-91
2022/02/01 12:48:02;;;;;;;0.80;0.70;;;3.90;99.90;;;;;;5017148;28;20461;-91
2022/02/01 12:50:28;;;;;;;2.63;0.77;;;3.90;99.90;;;;;;5033703;28;20050;-91
2022/02/01 12:53:03;;;;;;;1.15;0.50;;;3.80;99.90;;;;;;5033283;28;20050;-94
2022/02/01 12:55:30;;;;;;;2.38;0.93;;;3.70;99.90;;;;;;5033074;28;20050;-92
2022/02/01 12:58:13;;;;;;;2.33;0.68;;;3.50;99.90;;;;;;5031556;28;20045;-90
2022/02/01 13:00:39;;;;;;;2.63;0.70;;;3.40;99.90;;;;;;5033262;28;20060;-89
2022/02/01 13:03:09;;;;;;;1.45;0.80;;;3.40;99.90;;;;;;5032176;28;20050;-92
2022/02/01 13:05:36;;;;;;;1.90;0.57;;;3.40;99.90;;;;;;5033138;28;20057;-88
2022/02/01 13:08:35;;;;;;;2.53;0.52;;;3.40;99.90;;;;;;5032911;28;20104;-91
2022/02/01 13:14:25;;;;;;;3.33;0.68;;;3.40;99.90;;;;;;5017248;28;20525;-90
2022/02/01 13:16:43;;;;;;;1.23;0.50;;;3.40;99.90;;;;;;5017745;28;20056;-91
2022/02/01 13:21:39;;;;;;;0.90;0.52;;;3.50;99.90;;;;;;5017024;28;20049;-92
2022/02/01 13:24:06;;;;;;;2.55;0.50;;;3.50;99.90;;;;;;5032662;28;20083;-91
2022/02/01 13:26:53;;;;;;;0.60;0.50;;;3.50;99.90;;;;;;5030288;28;20045;-89
2022/02/01 13:29:20;;;;;;;0.73;0.38;;;3.60;99.90;;;;;;5032275;28;20409;-90
2022/02/01 13:31:50;;;;;;;0.70;0.50;;;3.60;99.90;;;;;;5032212;28;20486;-89
2022/02/01 13:34:30;;;;;;;0.43;0.43;;;3.60;99.90;;;;;;5032231;28;20050;-91
2022/02/01 13:37:01;;;;;;;2.05;0.45;;;3.70;99.90;;;;;;5032709;28;20049;-94
2022/02/01 13:39:29;;;;;;;2.03;0.65;;;3.70;99.90;;;;;;5032157;28;20072;-92
2022/02/01 13:41:59;;;;;;;0.40;0.40;;;3.70;99.90;;;;;;5032270;28;20045;-92
2022/02/01 13:44:57;;;;;;;0.43;0.40;;;3.60;99.90;;;;;;5028575;28;20046;-93
2022/02/01 13:47:42;;;;;;;0.90;0.40;;;3.50;99.90;;;;;;5031854;28;20146;-90
2022/02/01 13:50:15;;;;;;;1.20;0.45;;;3.50;99.90;;;;;;5032303;28;20053;-92
2022/02/01 13:52:41;;;;;;;1.02;0.55;;;3.40;99.90;;;;;;5032435;28;20069;-91
2022/02/01 13:55:25;;;;;;;1.02;0.52;;;3.40;99.90;;;;;;5031960;28;20056;-89
2022/02/01 13:58:01;;;;;;;0.82;0.45;;;3.40;99.90;;;;;;5031550;28;20531;-91
2022/02/01 14:00:33;;;;;;;1.85;0.40;;;3.40;99.90;;;;;;5032522;28;20073;-91
2022/02/01 14:03:17;;;;;;;1.83;0.40;;;3.40;99.90;;;;;;5032343;28;20053;-93
2022/02/01 14:06:07;;;;;;;0.63;0.50;;;3.50;99.90;;;;;;5032072;28;20061;-89
2022/02/01 14:08:42;;;;;;;0.40;0.38;;;3.50;99.90;;;;;;5031942;28;20048;-90
2022/02/01 14:14:14;;;;;;;0.40;0.40;;;3.50;99.90;;;;;;5016060;28;20049;-92
2022/02/01 14:27:45;;;;;;;0.70;0.30;;;3.60;99.90;;;;;;5020425;28;20046;-92
2022/02/01 14:35:40;;;;;;;0.75;0.20;;;3.70;99.90;;;;;;5019181;28;20050;-89
2022/02/01 14:38:22;;;;;;;0.30;0.30;;;3.70;99.90;;;;;;5033447;28;20057;-90
2022/02/01 14:46:07;;;;;;;0.08;0.05;;;3.80;99.90;;;;;;5017091;28;20050;-89
2022/02/01 14:48:36;;;;;;;0.40;0.40;;;3.90;99.90;;;;;;5031462;28;20074;-90
2022/02/01 14:51:05;;;;;;;0.30;0.30;;;3.90;99.90;;;;;;5031317;28;20073;-90
2022/02/01 14:53:32;;;;;;;0.28;0.13;;;3.90;99.90;;;;;;5031338;28;20050;-91
2022/02/01 14:56:09;;;;;;;0.30;0.30;;;3.90;99.90;;;;;;5030604;28;20060;-92
2022/02/01 15:12:39;;;;;;;0.00;0.00;;;3.70;99.90;;;;;;5015115;28;20050;-91
2022/02/01 15:15:08;;;;;;;0.10;0.10;;;3.80;99.90;;;;;;5030766;28;20049;-93